Lynn Lake Airport
CYYL : now visible

Airfield :











YOU CAN JOIN US ON...

 
LOGIN :

Register | Disclaimer

   EN    FR    IT 

 









Legend :    VFR   Marginal VFR   IFR   Intensive IFR   Very Intensive IFR
Visi :
Ceiling :
>= 8 km
>= 3000ft
5 to 8 km
1000 to 3000 ft
1500m to 5 km
500 to 1000 ft
800 to 1500m
200 to 500 ft
< 800m
< 200 ft
Symbols :   Thunderstorms  Fog  Heavy snow  Heavy precipitations  Wind > 20 kt






- Airport Elevation : 1170 ft
- IATA code : YYL


CYYL - Lynn Lake

CURRENT METAR :
  • 301600Z AUTO 04012G18KT 9SM OVC016 03/02 A3011 RMK SLP216

EXPIRED METARs :
  • 301500Z AUTO 04014G19KT 9SM OVC012 03/02 A3006 RMK PRESRR SLP200
  • 301425Z AUTO 05013G19KT 9SM OVC012 03/02 A3003 RMK PRESRR SLP189
  • 301420Z AUTO 04014G21KT 6SM -RA BR FEW008 OVC012 03/02 A3003 RMK PRESRR SLP187
  • 301408Z AUTO 04010G16KT 2 1/2SM -RA BR BKN010 OVC017 03/03 A3001 RMK SLP183
  • 301355Z AUTO 04013G18KT 5SM BR BKN012 OVC018 03/02 A3000 RMK SLP179
  • 301347Z AUTO 04012G20KT 3SM -RA BR BKN012 BKN018 OVC024 03/02 A3000 RMK SLP176

TAF TAF CYYL
Valid from the 30 at 13:00 until the 01 at 01:00 UTC


301238Z 3013/0101 02008KT P6SM SCT005 OVC012
TEMPO 3013/3018 3/4SM -SHRA BR OVC005
FM301800 03012KT P6SM SCT012 OVC030
TEMPO 3018/0101 5SM -SHRA BR SCT008 OVC012
BECMG 3022/3024 03008KT RMK FCST BASED ON AUTO OBS. NXT FCST BY 301900Z
CZWG FIR / North America



MET'MAP, your aeronautical weather chart ! - Copyright ORBIFLY December 2007 - Disclaimer

ORBIFLY MET'MAP TEAM :

Programming & Development : Alexandra Zaïnal
Concept & original design : Baudouin d'Aumeries
Assistance for programming : Marc-Olivier Méhu
Technical & hardware support : Manuel Goepfert

Contact : metmap@orbifly.com




SOURCES & CREDITS :

   NOAA       Earth
Advisory